Terminal Aerodrome Forecast
Issued by NWS

Home | Current Version | Previous Version | Text Only | Print | Product List | Glossary On
Versions: 1 2 3 4 5 6 7 8 9 10 11 12 13 14 15 16 17 18
173
FTUS41 KPBZ 300530
TAFBVI
TAF
KBVI 300530Z 3006/0106 08005KT 3SM -SHRA OVC020
      TEMPO 3006/3009 1 1/2SM -RA BR BKN008 OVC015
     FM301100 09007KT 6SM BR VCSH OVC025
     FM301700 10012G17KT P6SM VCSH BKN035
     FM010400 09008KT P6SM VCSH BKN020
      AMD NOT SKED=

USA.gov is the U.S. government's official web portal to all federal, state and local government web resources and services.